sensor_id;sensor_type;location;lat;lon;timestamp;P1;durP1;ratioP1;P2;durP2;ratioP2
16071;SDS011;8140;51.086;6.954;2022-09-09T00:00:44;2.63;;;1.20;;
16071;SDS011;8140;51.086;6.954;2022-09-09T00:03:14;4.32;;;1.35;;
16071;SDS011;8140;51.086;6.954;2022-09-09T00:05:44;4.50;;;1.40;;
16071;SDS011;8140;51.086;6.954;2022-09-09T00:08:14;4.15;;;1.40;;
16071;SDS011;8140;51.086;6.954;2022-09-09T00:10:42;5.80;;;1.83;;
16071;SDS011;8140;51.086;6.954;2022-09-09T00:13:13;2.00;;;1.30;;
16071;SDS011;8140;51.086;6.954;2022-09-09T00:15:43;6.78;;;1.92;;
16071;SDS011;8140;51.086;6.954;2022-09-09T00:18:15;5.55;;;1.63;;
16071;SDS011;8140;51.086;6.954;2022-09-09T00:20:44;3.45;;;1.42;;
16071;SDS011;8140;51.086;6.954;2022-09-09T00:23:14;3.33;;;1.60;;
16071;SDS011;8140;51.086;6.954;2022-09-09T00:25:46;2.63;;;1.85;;
16071;SDS011;8140;51.086;6.954;2022-09-09T00:28:16;2.40;;;1.65;;
16071;SDS011;8140;51.086;6.954;2022-09-09T00:30:44;2.65;;;1.40;;
16071;SDS011;8140;51.086;6.954;2022-09-09T00:33:12;4.40;;;1.92;;
16071;SDS011;8140;51.086;6.954;2022-09-09T00:35:42;5.97;;;2.35;;
16071;SDS011;8140;51.086;6.954;2022-09-09T00:38:10;4.15;;;1.98;;
16071;SDS011;8140;51.086;6.954;2022-09-09T00:40:40;3.35;;;1.98;;
16071;SDS011;8140;51.086;6.954;2022-09-09T00:43:10;3.83;;;1.80;;
16071;SDS011;8140;51.086;6.954;2022-09-09T00:45:47;3.05;;;1.92;;
16071;SDS011;8140;51.086;6.954;2022-09-09T00:48:18;4.40;;;1.83;;
16071;SDS011;8140;51.086;6.954;2022-09-09T00:50:49;2.17;;;1.50;;
16071;SDS011;8140;51.086;6.954;2022-09-09T00:53:24;3.47;;;1.80;;
16071;SDS011;8140;51.086;6.954;2022-09-09T00:55:57;3.35;;;1.75;;
16071;SDS011;8140;51.086;6.954;2022-09-09T00:58:27;3.03;;;1.95;;
16071;SDS011;8140;51.086;6.954;2022-09-09T01:00:55;1.95;;;1.58;;
16071;SDS011;8140;51.086;6.954;2022-09-09T01:03:26;5.20;;;1.58;;
16071;SDS011;8140;51.086;6.954;2022-09-09T01:06:02;3.08;;;1.38;;
16071;SDS011;8140;51.086;6.954;2022-09-09T01:11:19;1.58;;;1.30;;
16071;SDS011;8140;51.086;6.954;2022-09-09T01:13:47;2.08;;;1.38;;
16071;SDS011;8140;51.086;6.954;2022-09-09T01:16:16;2.55;;;1.20;;
16071;SDS011;8140;51.086;6.954;2022-09-09T01:18:44;1.70;;;1.20;;
16071;SDS011;8140;51.086;6.954;2022-09-09T01:21:15;2.35;;;1.20;;
16071;SDS011;8140;51.086;6.954;2022-09-09T01:23:56;3.00;;;1.30;;
16071;SDS011;8140;51.086;6.954;2022-09-09T01:26:41;4.05;;;1.50;;
16071;SDS011;8140;51.086;6.954;2022-09-09T01:29:16;3.53;;;1.65;;
16071;SDS011;8140;51.086;6.954;2022-09-09T01:31:51;2.63;;;1.40;;
16071;SDS011;8140;51.086;6.954;2022-09-09T01:34:19;3.05;;;1.45;;
16071;SDS011;8140;51.086;6.954;2022-09-09T01:36:47;1.67;;;1.40;;
16071;SDS011;8140;51.086;6.954;2022-09-09T01:39:16;4.00;;;1.20;;
16071;SDS011;8140;51.086;6.954;2022-09-09T01:41:46;2.15;;;1.30;;
16071;SDS011;8140;51.086;6.954;2022-09-09T01:44:16;3.10;;;1.50;;
16071;SDS011;8140;51.086;6.954;2022-09-09T01:46:44;3.90;;;1.50;;
16071;SDS011;8140;51.086;6.954;2022-09-09T01:49:15;2.28;;;1.42;;
16071;SDS011;8140;51.086;6.954;2022-09-09T01:51:42;2.75;;;1.38;;
16071;SDS011;8140;51.086;6.954;2022-09-09T01:54:12;1.98;;;1.52;;
16071;SDS011;8140;51.086;6.954;2022-09-09T01:56:40;2.67;;;0.98;;
16071;SDS011;8140;51.086;6.954;2022-09-09T01:59:16;1.65;;;1.02;;
16071;SDS011;8140;51.086;6.954;2022-09-09T02:01:50;3.08;;;1.00;;
16071;SDS011;8140;51.086;6.954;2022-09-09T02:04:23;1.70;;;0.80;;
16071;SDS011;8140;51.086;6.954;2022-09-09T02:06:55;1.23;;;0.80;;
16071;SDS011;8140;51.086;6.954;2022-09-09T02:09:26;1.35;;;0.60;;
16071;SDS011;8140;51.086;6.954;2022-09-09T02:11:58;1.30;;;0.70;;
16071;SDS011;8140;51.086;6.954;2022-09-09T02:14:39;2.53;;;0.77;;
16071;SDS011;8140;51.086;6.954;2022-09-09T02:17:09;2.35;;;0.60;;
16071;SDS011;8140;51.086;6.954;2022-09-09T02:19:52;1.85;;;0.60;;
16071;SDS011;8140;51.086;6.954;2022-09-09T02:22:35;2.80;;;0.70;;
16071;SDS011;8140;51.086;6.954;2022-09-09T02:25:05;2.35;;;0.73;;
16071;SDS011;8140;51.086;6.954;2022-09-09T02:27:33;1.05;;;0.52;;
16071;SDS011;8140;51.086;6.954;2022-09-09T02:30:02;1.08;;;0.98;;
16071;SDS011;8140;51.086;6.954;2022-09-09T02:32:40;2.22;;;0.90;;
16071;SDS011;8140;51.086;6.954;2022-09-09T02:35:12;1.85;;;1.05;;
16071;SDS011;8140;51.086;6.954;2022-09-09T02:37:41;2.65;;;0.77;;
16071;SDS011;8140;51.086;6.954;2022-09-09T02:40:10;1.83;;;0.98;;
16071;SDS011;8140;51.086;6.954;2022-09-09T02:42:42;2.83;;;0.80;;
16071;SDS011;8140;51.086;6.954;2022-09-09T02:45:11;1.05;;;0.90;;
16071;SDS011;8140;51.086;6.954;2022-09-09T02:47:41;1.08;;;0.82;;
16071;SDS011;8140;51.086;6.954;2022-09-09T02:50:12;1.48;;;0.85;;
16071;SDS011;8140;51.086;6.954;2022-09-09T02:52:43;2.60;;;1.00;;
16071;SDS011;8140;51.086;6.954;2022-09-09T02:55:14;3.13;;;1.50;;
16071;SDS011;8140;51.086;6.954;2022-09-09T02:57:45;1.52;;;1.20;;
16071;SDS011;8140;51.086;6.954;2022-09-09T03:00:16;2.47;;;1.10;;
16071;SDS011;8140;51.086;6.954;2022-09-09T03:02:49;1.92;;;0.90;;
16071;SDS011;8140;51.086;6.954;2022-09-09T03:05:16;2.35;;;1.23;;
16071;SDS011;8140;51.086;6.954;2022-09-09T03:07:42;3.60;;;0.80;;
16071;SDS011;8140;51.086;6.954;2022-09-09T03:10:09;2.05;;;1.00;;
16071;SDS011;8140;51.086;6.954;2022-09-09T03:12:36;3.90;;;1.08;;
16071;SDS011;8140;51.086;6.954;2022-09-09T03:15:05;4.03;;;1.17;;
16071;SDS011;8140;51.086;6.954;2022-09-09T03:17:33;2.03;;;1.00;;
16071;SDS011;8140;51.086;6.954;2022-09-09T03:19:59;3.63;;;0.77;;
16071;SDS011;8140;51.086;6.954;2022-09-09T03:22:27;3.58;;;1.38;;
16071;SDS011;8140;51.086;6.954;2022-09-09T03:24:57;4.78;;;1.30;;
16071;SDS011;8140;51.086;6.954;2022-09-09T03:27:23;1.58;;;1.23;;
16071;SDS011;8140;51.086;6.954;2022-09-09T03:29:51;2.70;;;1.42;;
16071;SDS011;8140;51.086;6.954;2022-09-09T03:32:21;5.95;;;2.25;;
16071;SDS011;8140;51.086;6.954;2022-09-09T03:34:51;1.92;;;0.90;;
16071;SDS011;8140;51.086;6.954;2022-09-09T03:37:18;3.60;;;1.33;;
16071;SDS011;8140;51.086;6.954;2022-09-09T03:39:45;5.88;;;1.50;;
16071;SDS011;8140;51.086;6.954;2022-09-09T03:42:13;2.97;;;1.17;;
16071;SDS011;8140;51.086;6.954;2022-09-09T03:44:44;3.90;;;1.23;;
16071;SDS011;8140;51.086;6.954;2022-09-09T03:47:13;3.13;;;1.30;;
16071;SDS011;8140;51.086;6.954;2022-09-09T03:49:40;1.77;;;1.10;;
16071;SDS011;8140;51.086;6.954;2022-09-09T03:52:09;2.45;;;1.02;;
16071;SDS011;8140;51.086;6.954;2022-09-09T03:54:36;3.15;;;1.30;;
16071;SDS011;8140;51.086;6.954;2022-09-09T03:57:04;1.90;;;1.00;;
16071;SDS011;8140;51.086;6.954;2022-09-09T03:59:31;3.00;;;1.30;;
16071;SDS011;8140;51.086;6.954;2022-09-09T04:01:58;3.38;;;1.30;;
16071;SDS011;8140;51.086;6.954;2022-09-09T04:04:24;4.05;;;1.23;;
16071;SDS011;8140;51.086;6.954;2022-09-09T04:06:51;1.17;;;0.82;;
16071;SDS011;8140;51.086;6.954;2022-09-09T04:09:19;1.50;;;0.80;;
16071;SDS011;8140;51.086;6.954;2022-09-09T04:11:48;3.75;;;1.40;;
16071;SDS011;8140;51.086;6.954;2022-09-09T04:14:15;2.03;;;1.20;;
16071;SDS011;8140;51.086;6.954;2022-09-09T04:16:41;6.57;;;1.20;;
16071;SDS011;8140;51.086;6.954;2022-09-09T04:19:10;3.85;;;1.63;;
16071;SDS011;8140;51.086;6.954;2022-09-09T04:21:37;2.75;;;1.33;;
16071;SDS011;8140;51.086;6.954;2022-09-09T04:24:04;3.83;;;1.30;;
16071;SDS011;8140;51.086;6.954;2022-09-09T04:26:32;5.82;;;1.88;;
16071;SDS011;8140;51.086;6.954;2022-09-09T04:28:59;2.35;;;1.05;;
16071;SDS011;8140;51.086;6.954;2022-09-09T04:31:27;3.08;;;1.50;;
16071;SDS011;8140;51.086;6.954;2022-09-09T04:33:55;2.67;;;1.30;;
16071;SDS011;8140;51.086;6.954;2022-09-09T04:36:23;3.78;;;1.52;;
16071;SDS011;8140;51.086;6.954;2022-09-09T04:38:53;5.13;;;1.52;;
16071;SDS011;8140;51.086;6.954;2022-09-09T04:41:20;3.17;;;1.45;;
16071;SDS011;8140;51.086;6.954;2022-09-09T04:43:51;6.40;;;2.03;;
16071;SDS011;8140;51.086;6.954;2022-09-09T04:46:19;3.72;;;1.20;;
16071;SDS011;8140;51.086;6.954;2022-09-09T04:48:48;3.13;;;1.30;;
16071;SDS011;8140;51.086;6.954;2022-09-09T04:51:15;4.15;;;1.40;;
16071;SDS011;8140;51.086;6.954;2022-09-09T04:53:44;5.15;;;1.70;;
16071;SDS011;8140;51.086;6.954;2022-09-09T04:56:12;3.35;;;1.77;;
16071;SDS011;8140;51.086;6.954;2022-09-09T04:58:44;2.40;;;2.20;;
16071;SDS011;8140;51.086;6.954;2022-09-09T05:01:13;3.75;;;1.38;;
16071;SDS011;8140;51.086;6.954;2022-09-09T05:03:43;2.70;;;1.42;;
16071;SDS011;8140;51.086;6.954;2022-09-09T05:06:12;3.67;;;1.30;;
16071;SDS011;8140;51.086;6.954;2022-09-09T05:08:40;2.80;;;1.20;;
16071;SDS011;8140;51.086;6.954;2022-09-09T05:11:13;3.58;;;1.27;;
16071;SDS011;8140;51.086;6.954;2022-09-09T05:13:40;2.13;;;1.40;;
16071;SDS011;8140;51.086;6.954;2022-09-09T05:16:06;1.90;;;1.23;;
16071;SDS011;8140;51.086;6.954;2022-09-09T05:18:37;3.72;;;1.38;;
16071;SDS011;8140;51.086;6.954;2022-09-09T05:21:06;3.15;;;1.42;;
16071;SDS011;8140;51.086;6.954;2022-09-09T05:23:33;5.32;;;1.83;;
16071;SDS011;8140;51.086;6.954;2022-09-09T05:26:00;2.63;;;1.35;;
16071;SDS011;8140;51.086;6.954;2022-09-09T05:28:28;4.10;;;1.83;;
16071;SDS011;8140;51.086;6.954;2022-09-09T05:30:59;6.28;;;1.60;;
16071;SDS011;8140;51.086;6.954;2022-09-09T05:33:27;1.88;;;1.20;;
16071;SDS011;8140;51.086;6.954;2022-09-09T05:35:58;3.22;;;1.52;;
16071;SDS011;8140;51.086;6.954;2022-09-09T05:38:25;3.88;;;2.10;;
16071;SDS011;8140;51.086;6.954;2022-09-09T05:40:52;5.53;;;1.45;;
16071;SDS011;8140;51.086;6.954;2022-09-09T05:43:19;6.55;;;1.45;;
16071;SDS011;8140;51.086;6.954;2022-09-09T05:45:46;3.53;;;1.35;;
16071;SDS011;8140;51.086;6.954;2022-09-09T05:48:13;2.63;;;1.20;;
16071;SDS011;8140;51.086;6.954;2022-09-09T05:50:41;2.28;;;1.20;;
16071;SDS011;8140;51.086;6.954;2022-09-09T05:53:09;3.75;;;1.20;;
16071;SDS011;8140;51.086;6.954;2022-09-09T05:55:35;4.85;;;1.20;;
16071;SDS011;8140;51.086;6.954;2022-09-09T05:58:03;3.78;;;1.20;;
16071;SDS011;8140;51.086;6.954;2022-09-09T06:00:29;2.08;;;1.23;;
16071;SDS011;8140;51.086;6.954;2022-09-09T06:02:57;2.33;;;1.45;;
16071;SDS011;8140;51.086;6.954;2022-09-09T06:05:24;4.43;;;1.30;;
16071;SDS011;8140;51.086;6.954;2022-09-09T06:07:54;4.03;;;1.42;;
16071;SDS011;8140;51.086;6.954;2022-09-09T06:10:22;3.45;;;1.65;;
16071;SDS011;8140;51.086;6.954;2022-09-09T06:12:51;4.88;;;1.33;;
16071;SDS011;8140;51.086;6.954;2022-09-09T06:15:18;3.05;;;1.27;;
16071;SDS011;8140;51.086;6.954;2022-09-09T06:17:45;3.75;;;1.40;;
16071;SDS011;8140;51.086;6.954;2022-09-09T06:20:12;4.10;;;1.58;;
16071;SDS011;8140;51.086;6.954;2022-09-09T06:22:39;1.60;;;0.98;;
16071;SDS011;8140;51.086;6.954;2022-09-09T06:25:06;2.35;;;1.13;;
16071;SDS011;8140;51.086;6.954;2022-09-09T06:27:34;4.00;;;1.30;;
16071;SDS011;8140;51.086;6.954;2022-09-09T06:30:02;4.85;;;1.33;;
16071;SDS011;8140;51.086;6.954;2022-09-09T06:32:29;3.33;;;1.23;;
16071;SDS011;8140;51.086;6.954;2022-09-09T06:34:55;2.42;;;1.02;;
16071;SDS011;8140;51.086;6.954;2022-09-09T06:37:22;4.72;;;1.35;;
16071;SDS011;8140;51.086;6.954;2022-09-09T06:39:49;2.72;;;1.23;;
16071;SDS011;8140;51.086;6.954;2022-09-09T06:42:16;2.22;;;1.30;;
16071;SDS011;8140;51.086;6.954;2022-09-09T06:44:44;2.65;;;1.40;;
16071;SDS011;8140;51.086;6.954;2022-09-09T06:47:17;3.22;;;1.50;;
16071;SDS011;8140;51.086;6.954;2022-09-09T06:49:45;4.15;;;1.48;;
16071;SDS011;8140;51.086;6.954;2022-09-09T06:52:11;3.33;;;1.40;;
16071;SDS011;8140;51.086;6.954;2022-09-09T06:54:38;5.45;;;1.98;;
16071;SDS011;8140;51.086;6.954;2022-09-09T06:57:05;3.55;;;1.20;;
16071;SDS011;8140;51.086;6.954;2022-09-09T06:59:32;4.43;;;1.13;;
16071;SDS011;8140;51.086;6.954;2022-09-09T07:02:01;2.97;;;0.95;;
16071;SDS011;8140;51.086;6.954;2022-09-09T07:04:28;3.45;;;1.17;;
16071;SDS011;8140;51.086;6.954;2022-09-09T07:06:55;2.85;;;1.15;;
16071;SDS011;8140;51.086;6.954;2022-09-09T07:09:23;2.70;;;1.08;;
16071;SDS011;8140;51.086;6.954;2022-09-09T07:11:52;3.08;;;1.02;;
16071;SDS011;8140;51.086;6.954;2022-09-09T07:14:20;2.65;;;1.27;;
16071;SDS011;8140;51.086;6.954;2022-09-09T07:16:53;2.75;;;1.30;;
16071;SDS011;8140;51.086;6.954;2022-09-09T07:19:21;3.65;;;1.00;;
16071;SDS011;8140;51.086;6.954;2022-09-09T07:21:51;4.63;;;1.60;;
16071;SDS011;8140;51.086;6.954;2022-09-09T07:24:19;5.40;;;1.30;;
16071;SDS011;8140;51.086;6.954;2022-09-09T07:26:46;7.57;;;1.45;;
16071;SDS011;8140;51.086;6.954;2022-09-09T07:29:12;2.00;;;1.08;;
16071;SDS011;8140;51.086;6.954;2022-09-09T07:31:41;3.47;;;1.20;;
16071;SDS011;8140;51.086;6.954;2022-09-09T07:34:11;3.92;;;0.98;;
16071;SDS011;8140;51.086;6.954;2022-09-09T07:36:40;5.78;;;1.05;;
16071;SDS011;8140;51.086;6.954;2022-09-09T07:39:11;5.15;;;1.10;;
16071;SDS011;8140;51.086;6.954;2022-09-09T07:41:39;4.35;;;0.70;;
16071;SDS011;8140;51.086;6.954;2022-09-09T07:44:07;4.13;;;1.10;;
16071;SDS011;8140;51.086;6.954;2022-09-09T07:46:35;2.20;;;1.10;;
16071;SDS011;8140;51.086;6.954;2022-09-09T07:49:02;3.25;;;0.98;;
16071;SDS011;8140;51.086;6.954;2022-09-09T07:51:33;3.80;;;1.10;;
16071;SDS011;8140;51.086;6.954;2022-09-09T07:54:02;2.45;;;0.95;;
16071;SDS011;8140;51.086;6.954;2022-09-09T07:56:31;5.30;;;1.27;;
16071;SDS011;8140;51.086;6.954;2022-09-09T07:58:58;2.60;;;0.93;;
16071;SDS011;8140;51.086;6.954;2022-09-09T08:01:26;3.30;;;0.93;;
16071;SDS011;8140;51.086;6.954;2022-09-09T08:03:53;1.73;;;0.73;;
16071;SDS011;8140;51.086;6.954;2022-09-09T08:06:20;3.42;;;0.85;;
16071;SDS011;8140;51.086;6.954;2022-09-09T08:08:49;7.07;;;1.13;;
16071;SDS011;8140;51.086;6.954;2022-09-09T08:11:18;2.03;;;0.80;;
16071;SDS011;8140;51.086;6.954;2022-09-09T08:13:45;2.95;;;1.05;;
16071;SDS011;8140;51.086;6.954;2022-09-09T08:16:13;2.70;;;0.90;;
16071;SDS011;8140;51.086;6.954;2022-09-09T08:18:40;3.58;;;0.90;;
16071;SDS011;8140;51.086;6.954;2022-09-09T08:21:08;2.85;;;0.80;;
16071;SDS011;8140;51.086;6.954;2022-09-09T08:23:37;2.38;;;0.90;;
16071;SDS011;8140;51.086;6.954;2022-09-09T08:26:09;3.60;;;1.00;;
16071;SDS011;8140;51.086;6.954;2022-09-09T08:28:37;4.45;;;1.30;;
16071;SDS011;8140;51.086;6.954;2022-09-09T08:31:05;5.93;;;1.33;;
16071;SDS011;8140;51.086;6.954;2022-09-09T08:33:32;2.85;;;1.10;;
16071;SDS011;8140;51.086;6.954;2022-09-09T08:35:59;5.85;;;1.67;;
16071;SDS011;8140;51.086;6.954;2022-09-09T08:38:25;2.22;;;0.93;;
16071;SDS011;8140;51.086;6.954;2022-09-09T08:40:52;2.67;;;0.73;;
16071;SDS011;8140;51.086;6.954;2022-09-09T08:43:24;4.50;;;1.70;;
16071;SDS011;8140;51.086;6.954;2022-09-09T08:45:55;3.33;;;0.85;;
16071;SDS011;8140;51.086;6.954;2022-09-09T08:48:31;1.20;;;0.80;;
16071;SDS011;8140;51.086;6.954;2022-09-09T08:51:02;2.40;;;0.70;;
16071;SDS011;8140;51.086;6.954;2022-09-09T08:53:34;3.35;;;0.95;;
16071;SDS011;8140;51.086;6.954;2022-09-09T08:56:08;3.35;;;0.88;;
16071;SDS011;8140;51.086;6.954;2022-09-09T08:58:47;4.72;;;1.20;;
16071;SDS011;8140;51.086;6.954;2022-09-09T09:04:05;2.33;;;0.77;;
16071;SDS011;8140;51.086;6.954;2022-09-09T09:06:39;3.10;;;0.77;;
16071;SDS011;8140;51.086;6.954;2022-09-09T09:09:11;4.07;;;0.85;;
16071;SDS011;8140;51.086;6.954;2022-09-09T09:11:39;2.08;;;0.70;;
16071;SDS011;8140;51.086;6.954;2022-09-09T09:14:09;2.45;;;0.95;;
16071;SDS011;8140;51.086;6.954;2022-09-09T09:16:39;4.32;;;0.90;;
16071;SDS011;8140;51.086;6.954;2022-09-09T09:19:10;2.85;;;1.00;;
16071;SDS011;8140;51.086;6.954;2022-09-09T09:21:41;2.88;;;0.90;;
16071;SDS011;8140;51.086;6.954;2022-09-09T09:24:12;5.05;;;0.98;;
16071;SDS011;8140;51.086;6.954;2022-09-09T09:26:43;2.65;;;0.80;;
16071;SDS011;8140;51.086;6.954;2022-09-09T09:29:11;2.45;;;0.68;;
16071;SDS011;8140;51.086;6.954;2022-09-09T09:31:41;1.35;;;0.40;;
16071;SDS011;8140;51.086;6.954;2022-09-09T09:34:09;2.15;;;0.80;;
16071;SDS011;8140;51.086;6.954;2022-09-09T09:36:39;2.60;;;0.82;;
16071;SDS011;8140;51.086;6.954;2022-09-09T09:39:06;5.38;;;0.60;;
16071;SDS011;8140;51.086;6.954;2022-09-09T09:41:40;1.00;;;0.50;;
16071;SDS011;8140;51.086;6.954;2022-09-09T09:44:20;2.40;;;0.45;;
16071;SDS011;8140;51.086;6.954;2022-09-09T09:46:48;3.13;;;0.60;;
16071;SDS011;8140;51.086;6.954;2022-09-09T09:49:16;1.95;;;0.60;;
16071;SDS011;8140;51.086;6.954;2022-09-09T09:51:43;2.13;;;0.60;;
16071;SDS011;8140;51.086;6.954;2022-09-09T09:54:14;1.77;;;0.65;;
16071;SDS011;8140;51.086;6.954;2022-09-09T09:56:45;2.15;;;0.55;;
16071;SDS011;8140;51.086;6.954;2022-09-09T09:59:20;3.13;;;0.55;;
16071;SDS011;8140;51.086;6.954;2022-09-09T10:01:47;3.58;;;0.80;;
16071;SDS011;8140;51.086;6.954;2022-09-09T10:04:14;2.80;;;0.70;;
16071;SDS011;8140;51.086;6.954;2022-09-09T10:06:43;1.27;;;0.45;;
16071;SDS011;8140;51.086;6.954;2022-09-09T10:09:20;2.50;;;0.43;;
16071;SDS011;8140;51.086;6.954;2022-09-09T10:11:48;1.27;;;0.68;;
16071;SDS011;8140;51.086;6.954;2022-09-09T10:14:19;2.97;;;0.80;;
16071;SDS011;8140;51.086;6.954;2022-09-09T10:16:52;2.70;;;0.63;;
16071;SDS011;8140;51.086;6.954;2022-09-09T10:19:21;1.63;;;0.40;;
16071;SDS011;8140;51.086;6.954;2022-09-09T10:22:00;6.00;;;0.70;;
16071;SDS011;8140;51.086;6.954;2022-09-09T10:24:33;2.63;;;0.60;;
16071;SDS011;8140;51.086;6.954;2022-09-09T10:27:03;1.90;;;0.70;;
16071;SDS011;8140;51.086;6.954;2022-09-09T10:29:40;1.13;;;0.40;;
16071;SDS011;8140;51.086;6.954;2022-09-09T10:32:17;1.75;;;0.50;;
16071;SDS011;8140;51.086;6.954;2022-09-09T10:34:55;2.67;;;0.70;;
16071;SDS011;8140;51.086;6.954;2022-09-09T10:37:34;4.25;;;0.90;;
16071;SDS011;8140;51.086;6.954;2022-09-09T10:40:08;2.50;;;0.75;;
16071;SDS011;8140;51.086;6.954;2022-09-09T10:42:43;1.67;;;0.50;;
16071;SDS011;8140;51.086;6.954;2022-09-09T10:45:14;2.42;;;0.73;;
16071;SDS011;8140;51.086;6.954;2022-09-09T10:47:46;2.88;;;0.88;;
16071;SDS011;8140;51.086;6.954;2022-09-09T10:53:02;2.08;;;0.68;;
16071;SDS011;8140;51.086;6.954;2022-09-09T10:55:35;2.75;;;0.60;;
16071;SDS011;8140;51.086;6.954;2022-09-09T10:58:04;7.20;;;0.65;;
16071;SDS011;8140;51.086;6.954;2022-09-09T11:00:36;1.92;;;0.63;;
16071;SDS011;8140;51.086;6.954;2022-09-09T11:03:05;2.53;;;0.60;;
16071;SDS011;8140;51.086;6.954;2022-09-09T11:05:35;1.40;;;0.52;;
16071;SDS011;8140;51.086;6.954;2022-09-09T11:08:06;2.78;;;0.68;;
16071;SDS011;8140;51.086;6.954;2022-09-09T11:10:38;2.72;;;0.60;;
16071;SDS011;8140;51.086;6.954;2022-09-09T11:13:09;3.20;;;0.77;;
16071;SDS011;8140;51.086;6.954;2022-09-09T11:15:39;2.55;;;0.60;;
16071;SDS011;8140;51.086;6.954;2022-09-09T11:18:08;3.00;;;0.70;;
16071;SDS011;8140;51.086;6.954;2022-09-09T11:20:37;3.70;;;0.80;;
16071;SDS011;8140;51.086;6.954;2022-09-09T11:23:04;2.33;;;0.88;;
16071;SDS011;8140;51.086;6.954;2022-09-09T11:25:34;3.33;;;0.55;;
16071;SDS011;8140;51.086;6.954;2022-09-09T11:28:11;2.60;;;0.52;;
16071;SDS011;8140;51.086;6.954;2022-09-09T11:30:46;1.92;;;0.60;;
16071;SDS011;8140;51.086;6.954;2022-09-09T11:33:23;5.75;;;0.90;;
16071;SDS011;8140;51.086;6.954;2022-09-09T11:35:57;2.03;;;0.52;;
16071;SDS011;8140;51.086;6.954;2022-09-09T11:38:26;2.05;;;0.60;;
16071;SDS011;8140;51.086;6.954;2022-09-09T11:41:01;3.40;;;0.70;;
16071;SDS011;8140;51.086;6.954;2022-09-09T11:43:30;2.88;;;0.52;;
16071;SDS011;8140;51.086;6.954;2022-09-09T11:45:58;1.77;;;0.50;;
16071;SDS011;8140;51.086;6.954;2022-09-09T11:48:28;2.83;;;0.60;;
16071;SDS011;8140;51.086;6.954;2022-09-09T11:50:59;2.65;;;0.70;;
16071;SDS011;8140;51.086;6.954;2022-09-09T11:53:26;1.35;;;0.68;;
16071;SDS011;8140;51.086;6.954;2022-09-09T11:56:11;1.52;;;0.40;;
16071;SDS011;8140;51.086;6.954;2022-09-09T11:58:39;1.92;;;0.60;;
16071;SDS011;8140;51.086;6.954;2022-09-09T12:01:13;2.47;;;0.55;;
16071;SDS011;8140;51.086;6.954;2022-09-09T12:03:41;3.00;;;0.75;;
16071;SDS011;8140;51.086;6.954;2022-09-09T12:06:09;6.95;;;0.80;;
16071;SDS011;8140;51.086;6.954;2022-09-09T12:08:39;1.58;;;0.40;;
16071;SDS011;8140;51.086;6.954;2022-09-09T12:11:07;1.55;;;0.65;;
16071;SDS011;8140;51.086;6.954;2022-09-09T12:13:35;2.00;;;0.60;;
16071;SDS011;8140;51.086;6.954;2022-09-09T12:16:03;2.63;;;0.50;;
16071;SDS011;8140;51.086;6.954;2022-09-09T12:18:32;1.02;;;0.55;;
16071;SDS011;8140;51.086;6.954;2022-09-09T12:21:01;1.77;;;0.55;;
16071;SDS011;8140;51.086;6.954;2022-09-09T12:23:31;1.45;;;0.60;;
16071;SDS011;8140;51.086;6.954;2022-09-09T12:26:01;2.25;;;0.60;;
16071;SDS011;8140;51.086;6.954;2022-09-09T12:28:36;3.33;;;0.95;;
16071;SDS011;8140;51.086;6.954;2022-09-09T12:31:08;2.67;;;0.93;;
16071;SDS011;8140;51.086;6.954;2022-09-09T12:33:39;2.22;;;0.70;;
16071;SDS011;8140;51.086;6.954;2022-09-09T12:36:09;2.53;;;0.65;;
16071;SDS011;8140;51.086;6.954;2022-09-09T12:38:39;2.65;;;0.73;;
16071;SDS011;8140;51.086;6.954;2022-09-09T12:41:06;2.08;;;0.85;;
16071;SDS011;8140;51.086;6.954;2022-09-09T12:43:32;1.55;;;0.60;;
16071;SDS011;8140;51.086;6.954;2022-09-09T12:45:59;2.72;;;0.70;;
16071;SDS011;8140;51.086;6.954;2022-09-09T12:48:32;2.15;;;0.55;;
16071;SDS011;8140;51.086;6.954;2022-09-09T12:50:59;2.85;;;0.80;;
16071;SDS011;8140;51.086;6.954;2022-09-09T12:53:28;2.75;;;0.47;;
16071;SDS011;8140;51.086;6.954;2022-09-09T12:55:56;2.88;;;0.70;;
16071;SDS011;8140;51.086;6.954;2022-09-09T12:58:22;6.93;;;1.13;;
16071;SDS011;8140;51.086;6.954;2022-09-09T13:00:50;2.53;;;0.93;;
16071;SDS011;8140;51.086;6.954;2022-09-09T13:03:18;4.55;;;1.15;;
16071;SDS011;8140;51.086;6.954;2022-09-09T13:05:47;4.60;;;1.50;;
16071;SDS011;8140;51.086;6.954;2022-09-09T13:08:14;4.13;;;1.23;;
16071;SDS011;8140;51.086;6.954;2022-09-09T13:10:46;3.17;;;1.23;;
16071;SDS011;8140;51.086;6.954;2022-09-09T13:13:13;4.32;;;1.05;;
16071;SDS011;8140;51.086;6.954;2022-09-09T13:15:47;4.43;;;1.20;;
16071;SDS011;8140;51.086;6.954;2022-09-09T13:18:20;3.42;;;1.15;;
16071;SDS011;8140;51.086;6.954;2022-09-09T13:20:49;2.15;;;0.80;;
16071;SDS011;8140;51.086;6.954;2022-09-09T13:23:16;4.82;;;0.93;;
16071;SDS011;8140;51.086;6.954;2022-09-09T13:25:52;2.85;;;0.90;;
16071;SDS011;8140;51.086;6.954;2022-09-09T13:28:20;3.00;;;0.85;;
16071;SDS011;8140;51.086;6.954;2022-09-09T13:30:54;2.58;;;0.75;;
16071;SDS011;8140;51.086;6.954;2022-09-09T13:33:28;1.15;;;0.60;;
16071;SDS011;8140;51.086;6.954;2022-09-09T13:35:57;3.95;;;1.00;;
16071;SDS011;8140;51.086;6.954;2022-09-09T13:38:24;2.35;;;0.77;;
16071;SDS011;8140;51.086;6.954;2022-09-09T13:40:54;1.52;;;0.80;;
16071;SDS011;8140;51.086;6.954;2022-09-09T13:43:23;1.15;;;0.63;;
16071;SDS011;8140;51.086;6.954;2022-09-09T13:45:53;3.05;;;0.65;;
16071;SDS011;8140;51.086;6.954;2022-09-09T13:48:21;2.30;;;0.52;;
16071;SDS011;8140;51.086;6.954;2022-09-09T13:50:53;3.88;;;0.70;;
16071;SDS011;8140;51.086;6.954;2022-09-09T13:53:21;3.05;;;1.10;;
16071;SDS011;8140;51.086;6.954;2022-09-09T13:55:47;3.08;;;1.13;;
16071;SDS011;8140;51.086;6.954;2022-09-09T13:58:15;1.42;;;0.60;;
16071;SDS011;8140;51.086;6.954;2022-09-09T14:00:42;2.10;;;0.68;;
16071;SDS011;8140;51.086;6.954;2022-09-09T14:03:08;1.45;;;0.55;;
16071;SDS011;8140;51.086;6.954;2022-09-09T14:05:35;4.78;;;1.10;;
16071;SDS011;8140;51.086;6.954;2022-09-09T14:08:02;4.20;;;0.85;;
16071;SDS011;8140;51.086;6.954;2022-09-09T14:10:31;3.90;;;1.02;;
16071;SDS011;8140;51.086;6.954;2022-09-09T14:12:57;2.25;;;1.15;;
16071;SDS011;8140;51.086;6.954;2022-09-09T14:15:24;2.63;;;0.70;;
16071;SDS011;8140;51.086;6.954;2022-09-09T14:17:52;2.80;;;1.30;;
16071;SDS011;8140;51.086;6.954;2022-09-09T14:20:18;2.70;;;0.63;;
16071;SDS011;8140;51.086;6.954;2022-09-09T14:22:45;3.22;;;1.17;;
16071;SDS011;8140;51.086;6.954;2022-09-09T14:25:11;2.80;;;0.93;;
16071;SDS011;8140;51.086;6.954;2022-09-09T14:27:40;2.72;;;0.95;;
16071;SDS011;8140;51.086;6.954;2022-09-09T14:30:07;2.03;;;0.70;;
16071;SDS011;8140;51.086;6.954;2022-09-09T14:32:34;1.40;;;0.57;;
16071;SDS011;8140;51.086;6.954;2022-09-09T14:35:01;4.60;;;1.00;;
16071;SDS011;8140;51.086;6.954;2022-09-09T14:37:27;3.33;;;0.90;;
16071;SDS011;8140;51.086;6.954;2022-09-09T14:39:56;4.97;;;1.60;;
16071;SDS011;8140;51.086;6.954;2022-09-09T14:42:22;4.53;;;1.25;;
16071;SDS011;8140;51.086;6.954;2022-09-09T14:44:50;4.03;;;0.70;;
16071;SDS011;8140;51.086;6.954;2022-09-09T14:47:16;2.50;;;0.73;;
16071;SDS011;8140;51.086;6.954;2022-09-09T14:49:43;2.03;;;0.70;;
16071;SDS011;8140;51.086;6.954;2022-09-09T14:52:10;0.85;;;0.40;;
16071;SDS011;8140;51.086;6.954;2022-09-09T14:54:38;2.47;;;0.50;;
16071;SDS011;8140;51.086;6.954;2022-09-09T14:57:04;0.68;;;0.38;;
16071;SDS011;8140;51.086;6.954;2022-09-09T14:59:31;0.90;;;0.30;;
16071;SDS011;8140;51.086;6.954;2022-09-09T15:01:59;2.22;;;0.50;;
16071;SDS011;8140;51.086;6.954;2022-09-09T15:04:29;0.93;;;0.40;;
16071;SDS011;8140;51.086;6.954;2022-09-09T15:06:56;0.95;;;0.32;;
16071;SDS011;8140;51.086;6.954;2022-09-09T15:09:24;1.48;;;0.60;;
16071;SDS011;8140;51.086;6.954;2022-09-09T15:11:51;2.13;;;0.95;;
16071;SDS011;8140;51.086;6.954;2022-09-09T15:14:17;2.03;;;0.80;;
16071;SDS011;8140;51.086;6.954;2022-09-09T15:16:44;2.55;;;0.73;;
16071;SDS011;8140;51.086;6.954;2022-09-09T15:19:11;2.03;;;0.50;;
16071;SDS011;8140;51.086;6.954;2022-09-09T15:21:38;1.30;;;0.45;;